Time;durP1;ratioP1;P1;durP2;ratioP2;P2;SDS_P1;SDS_P2;PMS_P1;PMS_P2;Temp;Humidity;BMP_temperature;BMP_pressure;BME280_temperature;BME280_humidity;BME280_pressure;Samples;Min_cycle;Max_cycle;Signal;HPM_P1;HPM_P2
2023/03/23 00:01:57;;;;;;;1.60;1.30;;;12.00;95.60;;;;;;5025797;28;20471;-74
2023/03/23 00:04:26;;;;;;;3.33;1.60;;;12.00;95.60;;;;;;5020486;28;20242;-74
2023/03/23 00:06:53;;;;;;;1.70;1.30;;;12.10;95.70;;;;;;5016044;28;20199;-74
2023/03/23 00:09:24;;;;;;;1.20;1.10;;;12.10;95.40;;;;;;5019686;28;21163;-74
2023/03/23 00:11:56;;;;;;;1.77;1.30;;;12.20;95.60;;;;;;5015083;28;20242;-74
2023/03/23 00:14:24;;;;;;;1.53;1.30;;;12.20;95.60;;;;;;5014665;28;20477;-74
2023/03/23 00:16:51;;;;;;;1.60;1.43;;;12.30;95.90;;;;;;5015209;28;20465;-73
2023/03/23 00:19:20;;;;;;;1.30;1.10;;;12.20;95.80;;;;;;5015748;28;20469;-73
2023/03/23 00:21:47;;;;;;;2.00;1.60;;;12.30;95.50;;;;;;5016803;28;20462;-73
2023/03/23 00:24:16;;;;;;;1.87;1.30;;;12.30;95.30;;;;;;5013916;28;20483;-73
2023/03/23 00:26:46;;;;;;;3.73;1.40;;;12.40;95.30;;;;;;5015271;28;20904;-73
2023/03/23 00:29:15;;;;;;;1.60;1.37;;;12.40;95.30;;;;;;5016023;28;20465;-73
2023/03/23 00:31:46;;;;;;;1.47;1.37;;;12.40;95.60;;;;;;5017708;28;20835;-73
2023/03/23 00:34:19;;;;;;;1.57;1.20;;;12.40;96.00;;;;;;5016567;28;20481;-73
2023/03/23 00:36:47;;;;;;;2.70;1.50;;;12.30;95.70;;;;;;5017079;28;20507;-73
2023/03/23 00:39:15;;;;;;;2.70;1.40;;;12.20;95.70;;;;;;5015181;28;20809;-73
2023/03/23 00:41:44;;;;;;;2.27;1.47;;;12.20;96.00;;;;;;5015450;28;20457;-73
2023/03/23 00:44:16;;;;;;;1.53;1.40;;;12.10;96.20;;;;;;5014157;28;20473;-73
2023/03/23 00:46:44;;;;;;;1.50;1.40;;;12.10;95.90;;;;;;5013884;28;20488;-73
2023/03/23 00:49:13;;;;;;;1.60;1.50;;;11.90;95.80;;;;;;5014140;28;20501;-72
2023/03/23 00:51:40;;;;;;;1.87;1.50;;;11.90;95.70;;;;;;5013866;28;20880;-73
2023/03/23 00:54:07;;;;;;;2.30;1.77;;;11.90;96.00;;;;;;5013332;28;20485;-75
2023/03/23 00:56:35;;;;;;;1.83;1.55;;;11.90;95.70;;;;;;5013713;28;20205;-74
2023/03/23 00:59:03;;;;;;;2.30;1.70;;;11.90;95.60;;;;;;5013901;28;20272;-75
2023/03/23 01:01:30;;;;;;;3.73;2.10;;;11.90;95.90;;;;;;5016115;28;20203;-74
2023/03/23 01:04:00;;;;;;;1.92;1.60;;;11.80;95.90;;;;;;5017447;28;20599;-75
2023/03/23 01:06:28;;;;;;;2.63;1.40;;;11.90;95.80;;;;;;5017130;28;20302;-75
2023/03/23 01:08:56;;;;;;;1.85;1.40;;;11.90;95.50;;;;;;5017049;28;20627;-74
2023/03/23 01:11:23;;;;;;;1.37;1.27;;;11.90;95.30;;;;;;5016906;28;20206;-74
2023/03/23 01:13:50;;;;;;;2.30;1.60;;;11.90;95.80;;;;;;5016951;28;20898;-74
2023/03/23 01:16:18;;;;;;;1.67;1.57;;;11.90;95.50;;;;;;5016046;28;20468;-74
2023/03/23 01:18:45;;;;;;;2.08;1.67;;;11.90;95.50;;;;;;5016576;28;20461;-74
2023/03/23 01:21:13;;;;;;;2.58;1.65;;;12.00;95.60;;;;;;5016294;28;20235;-74
2023/03/23 01:23:40;;;;;;;2.83;1.57;;;12.00;95.50;;;;;;5016246;28;20207;-74
2023/03/23 01:26:09;;;;;;;1.80;1.53;;;12.00;95.60;;;;;;5014447;28;20866;-74
2023/03/23 01:28:37;;;;;;;2.80;1.73;;;12.00;95.80;;;;;;5014996;28;20546;-74
2023/03/23 01:31:05;;;;;;;1.63;1.40;;;12.00;95.80;;;;;;5014196;28;20217;-74
2023/03/23 01:33:33;;;;;;;1.27;1.17;;;12.00;95.50;;;;;;5014108;28;20465;-74
2023/03/23 01:36:04;;;;;;;1.50;1.40;;;12.00;95.80;;;;;;5013505;28;20232;-74
2023/03/23 01:38:31;;;;;;;3.55;1.50;;;12.00;96.20;;;;;;5014093;28;20488;-74
2023/03/23 01:40:58;;;;;;;1.83;1.55;;;12.00;95.60;;;;;;5013896;28;20210;-74
2023/03/23 01:43:25;;;;;;;1.60;1.50;;;12.00;95.90;;;;;;5014078;28;20642;-74
2023/03/23 01:45:52;;;;;;;1.42;1.20;;;12.00;96.10;;;;;;5014385;28;20900;-74
2023/03/23 01:48:23;;;;;;;1.67;1.30;;;12.00;96.00;;;;;;5013063;28;20669;-74
2023/03/23 01:50:58;;;;;;;2.23;1.40;;;12.00;96.20;;;;;;5015181;28;20971;-74
2023/03/23 01:53:29;;;;;;;2.30;1.50;;;11.90;95.70;;;;;;5014095;28;20465;-74
2023/03/23 01:55:59;;;;;;;1.55;1.30;;;12.00;95.80;;;;;;5013849;28;20678;-74
2023/03/23 01:58:31;;;;;;;1.90;1.45;;;12.00;95.80;;;;;;5014139;28;20725;-74
2023/03/23 02:01:02;;;;;;;1.70;1.60;;;11.90;96.00;;;;;;5013719;28;20198;-74
2023/03/23 02:03:30;;;;;;;1.63;1.38;;;12.00;95.90;;;;;;5053797;22;20213;-94
2023/03/23 02:05:59;;;;;;;3.45;1.65;;;11.90;96.20;;;;;;5068521;28;20223;-93
2023/03/23 02:08:28;;;;;;;1.50;1.40;;;12.00;95.80;;;;;;5076659;28;20193;-92
2023/03/23 02:10:55;;;;;;;2.10;1.60;;;12.00;95.70;;;;;;5077325;28;20447;-93
2023/03/23 02:13:23;;;;;;;1.50;1.40;;;12.00;95.80;;;;;;5060545;28;20527;-93
2023/03/23 02:15:59;;;;;;;2.10;1.70;;;12.00;96.10;;;;;;5076903;28;20498;-94
2023/03/23 02:18:49;;;;;;;2.63;1.40;;;12.00;96.50;;;;;;5069239;28;20440;-94
2023/03/23 02:21:50;;;;;;;2.40;1.77;;;12.00;97.00;;;;;;5065878;28;20198;-93
2023/03/23 02:24:56;;;;;;;1.90;1.50;;;12.00;97.10;;;;;;5075728;28;20459;-94
2023/03/23 02:27:51;;;;;;;4.07;1.70;;;11.90;97.00;;;;;;5049137;28;20450;-94
2023/03/23 02:30:38;;;;;;;2.47;1.60;;;11.90;96.40;;;;;;5057408;28;20485;-93
2023/03/23 02:33:30;;;;;;;1.50;1.20;;;11.90;97.20;;;;;;5076518;28;20213;-93
2023/03/23 02:36:02;;;;;;;2.10;1.73;;;11.90;97.80;;;;;;5073778;28;20207;-93
2023/03/23 02:38:33;;;;;;;2.85;1.83;;;11.80;97.30;;;;;;5069308;28;20518;-93
2023/03/23 02:41:03;;;;;;;2.22;1.70;;;11.80;97.80;;;;;;5076528;28;20252;-95
2023/03/23 02:43:36;;;;;;;1.90;1.70;;;11.70;97.00;;;;;;5076772;28;20215;-93
2023/03/23 02:46:07;;;;;;;2.13;1.77;;;11.80;97.40;;;;;;5076273;28;20470;-96
2023/03/23 02:51:05;;;;;;;1.70;1.33;;;11.80;97.30;;;;;;5059667;28;20459;-68
2023/03/23 02:53:35;;;;;;;1.77;1.50;;;11.80;97.50;;;;;;5069473;28;20461;-68
2023/03/23 02:56:04;;;;;;;2.70;1.73;;;11.80;98.10;;;;;;5069367;28;20345;-68
2023/03/23 02:58:32;;;;;;;1.30;1.20;;;11.70;98.40;;;;;;5069753;28;20531;-68
2023/03/23 03:00:58;;;;;;;1.70;1.60;;;11.60;98.50;;;;;;5069788;28;20458;-69
2023/03/23 03:03:28;;;;;;;2.30;1.20;;;11.60;98.80;;;;;;5049905;28;20505;-69
2023/03/23 03:06:03;;;;;;;1.60;1.50;;;11.50;98.50;;;;;;5049830;28;20193;-68
2023/03/23 03:08:39;;;;;;;2.17;1.40;;;11.50;98.70;;;;;;5062196;28;20466;-68
2023/03/23 03:11:09;;;;;;;2.37;1.53;;;11.40;98.60;;;;;;5069733;28;20206;-68
2023/03/23 03:13:44;;;;;;;1.40;1.23;;;11.40;99.00;;;;;;5070179;28;20465;-68
2023/03/23 03:16:19;;;;;;;1.97;1.60;;;11.40;97.90;;;;;;5069499;28;20875;-68
2023/03/23 03:18:52;;;;;;;1.63;1.52;;;11.40;97.90;;;;;;5069881;28;20462;-69
2023/03/23 03:21:25;;;;;;;1.33;1.20;;;11.50;97.80;;;;;;5069841;28;20679;-69
2023/03/23 03:23:55;;;;;;;1.67;1.43;;;11.50;97.70;;;;;;5062749;28;20479;-68
2023/03/23 03:26:26;;;;;;;1.53;1.40;;;11.50;97.70;;;;;;5049639;28;20459;-68
2023/03/23 03:28:53;;;;;;;1.67;1.20;;;11.60;97.80;;;;;;5049812;28;20467;-69
2023/03/23 03:31:22;;;;;;;1.67;1.20;;;11.60;97.30;;;;;;5049464;28;20954;-69
2023/03/23 03:33:49;;;;;;;1.70;1.60;;;11.70;97.20;;;;;;5049454;28;20486;-69
2023/03/23 03:36:18;;;;;;;1.63;1.30;;;11.80;97.50;;;;;;5049165;28;20509;-68
2023/03/23 03:38:48;;;;;;;4.33;1.20;;;11.90;98.00;;;;;;5049458;28;20472;-68
2023/03/23 03:41:17;;;;;;;1.40;1.30;;;11.80;98.40;;;;;;5049102;28;20832;-69
2023/03/23 03:43:43;;;;;;;1.43;1.27;;;11.80;99.00;;;;;;5049360;28;20483;-68
2023/03/23 03:46:10;;;;;;;3.30;1.80;;;11.80;97.50;;;;;;5048998;28;20455;-70
2023/03/23 03:48:37;;;;;;;2.00;1.60;;;11.80;97.50;;;;;;5049430;28;20471;-71
2023/03/23 03:51:04;;;;;;;2.07;1.37;;;11.80;98.30;;;;;;5048997;28;20467;-70
2023/03/23 03:53:31;;;;;;;1.80;1.40;;;11.90;98.20;;;;;;5049304;28;20455;-68
2023/03/23 03:55:59;;;;;;;1.90;1.73;;;11.90;98.10;;;;;;5049266;28;20483;-68
2023/03/23 03:58:31;;;;;;;1.60;1.30;;;11.90;97.60;;;;;;5050877;28;20543;-68
2023/03/23 04:00:58;;;;;;;3.73;1.50;;;12.00;97.30;;;;;;5052783;28;20459;-69
2023/03/23 04:03:26;;;;;;;1.77;1.40;;;12.10;97.30;;;;;;5052764;28;20467;-69
2023/03/23 04:05:54;;;;;;;1.87;1.53;;;12.10;97.40;;;;;;5052504;28;20455;-68
2023/03/23 04:08:21;;;;;;;2.57;1.50;;;12.10;97.00;;;;;;5052033;28;21008;-68
2023/03/23 04:10:48;;;;;;;3.53;1.50;;;12.20;97.00;;;;;;5052099;28;20455;-68
2023/03/23 04:13:16;;;;;;;1.70;1.50;;;12.20;96.90;;;;;;5052671;28;20459;-71
2023/03/23 04:15:45;;;;;;;1.30;1.13;;;12.30;96.80;;;;;;5052308;28;20877;-68
2023/03/23 04:18:13;;;;;;;1.80;1.40;;;12.30;96.80;;;;;;5052229;28;20893;-68
2023/03/23 04:20:40;;;;;;;1.47;1.27;;;12.30;96.90;;;;;;5052617;28;20490;-68
2023/03/23 04:23:07;;;;;;;1.30;1.20;;;12.40;96.90;;;;;;5052112;28;20477;-68
2023/03/23 04:25:33;;;;;;;2.13;1.30;;;12.40;96.90;;;;;;5052149;28;20554;-69
2023/03/23 04:28:01;;;;;;;2.50;1.60;;;12.40;97.10;;;;;;5052087;28;20464;-68
2023/03/23 04:30:29;;;;;;;2.00;1.53;;;12.40;97.40;;;;;;5051760;28;20463;-68
2023/03/23 04:32:59;;;;;;;1.63;1.37;;;12.40;97.10;;;;;;5051995;28;20479;-68
2023/03/23 04:35:26;;;;;;;1.77;1.50;;;12.30;97.20;;;;;;5057646;28;20490;-68
2023/03/23 04:37:54;;;;;;;1.85;1.50;;;12.40;97.10;;;;;;5056218;28;20515;-68
2023/03/23 04:40:21;;;;;;;1.30;1.20;;;12.40;97.00;;;;;;5059177;28;20203;-68
2023/03/23 04:42:50;;;;;;;1.20;1.10;;;12.50;97.40;;;;;;5056435;28;20488;-69
2023/03/23 04:45:21;;;;;;;2.97;1.50;;;12.50;96.90;;;;;;5058519;28;20478;-69
2023/03/23 04:47:52;;;;;;;1.87;1.70;;;12.60;96.90;;;;;;5056156;28;20994;-70
2023/03/23 04:50:23;;;;;;;1.40;1.30;;;12.60;96.70;;;;;;5058832;28;20551;-69
2023/03/23 04:52:51;;;;;;;1.60;1.50;;;12.70;96.70;;;;;;5059531;28;20467;-69
2023/03/23 04:55:18;;;;;;;2.07;1.77;;;12.70;96.60;;;;;;5059406;28;20495;-69
2023/03/23 04:57:45;;;;;;;1.60;1.50;;;12.70;96.60;;;;;;5061395;28;20826;-69
2023/03/23 05:00:16;;;;;;;2.13;1.67;;;12.80;96.70;;;;;;5056905;28;20462;-69
2023/03/23 05:02:43;;;;;;;1.93;1.30;;;12.80;96.60;;;;;;5058753;28;21000;-69
2023/03/23 05:05:11;;;;;;;2.00;1.20;;;12.90;96.70;;;;;;5057766;28;20483;-69
2023/03/23 05:07:40;;;;;;;1.20;1.10;;;12.90;96.60;;;;;;5055650;28;20548;-69
2023/03/23 05:10:10;;;;;;;2.03;1.27;;;12.90;96.50;;;;;;5057653;28;20850;-67
2023/03/23 05:12:37;;;;;;;2.43;1.40;;;12.90;96.50;;;;;;5058957;28;20563;-70
2023/03/23 05:15:05;;;;;;;1.40;1.30;;;12.90;96.50;;;;;;5057366;28;20487;-69
2023/03/23 05:17:32;;;;;;;1.70;1.50;;;12.90;96.30;;;;;;5056375;28;20900;-70
2023/03/23 05:19:59;;;;;;;1.63;1.30;;;12.90;96.40;;;;;;5058069;28;20554;-70
2023/03/23 05:22:27;;;;;;;1.60;1.30;;;12.90;96.30;;;;;;5057942;28;20983;-69
2023/03/23 05:24:55;;;;;;;1.70;1.43;;;13.00;96.20;;;;;;5055393;28;21019;-69
2023/03/23 05:27:22;;;;;;;1.50;1.40;;;13.00;96.20;;;;;;5062164;28;20467;-70
2023/03/23 05:29:49;;;;;;;1.30;1.20;;;13.00;96.30;;;;;;5067563;28;20828;-70
2023/03/23 05:32:16;;;;;;;1.80;1.50;;;12.90;96.40;;;;;;5069116;28;20481;-70
2023/03/23 05:34:43;;;;;;;2.43;1.63;;;13.00;96.30;;;;;;5069691;28;20566;-70
2023/03/23 05:37:11;;;;;;;1.43;1.30;;;13.00;96.00;;;;;;5070320;28;21040;-70
2023/03/23 05:39:39;;;;;;;1.63;1.53;;;13.10;96.10;;;;;;5071042;28;20547;-70
2023/03/23 05:42:08;;;;;;;1.50;1.40;;;13.10;96.20;;;;;;5070347;28;20934;-70
2023/03/23 05:44:35;;;;;;;1.60;1.20;;;13.10;96.10;;;;;;5070504;28;20531;-70
2023/03/23 05:47:02;;;;;;;2.07;1.30;;;13.10;96.10;;;;;;5070425;28;20466;-70
2023/03/23 05:49:28;;;;;;;1.67;1.53;;;13.10;96.00;;;;;;5070428;28;20972;-70
2023/03/23 05:51:55;;;;;;;2.50;2.00;;;13.10;96.00;;;;;;5070528;28;20488;-70
2023/03/23 05:54:22;;;;;;;2.30;1.37;;;13.10;95.90;;;;;;5070136;28;20478;-70
2023/03/23 05:56:49;;;;;;;1.93;1.30;;;13.20;96.00;;;;;;5070102;28;20478;-69
2023/03/23 05:59:17;;;;;;;1.70;1.60;;;13.20;95.90;;;;;;5070578;28;20490;-70
2023/03/23 06:01:44;;;;;;;1.50;1.40;;;13.30;95.80;;;;;;5070505;28;20455;-69
2023/03/23 06:04:11;;;;;;;2.70;1.20;;;13.30;95.90;;;;;;5070369;28;20474;-70
2023/03/23 06:06:38;;;;;;;1.33;1.23;;;13.30;95.80;;;;;;5058932;28;20527;-70
2023/03/23 06:09:06;;;;;;;1.60;1.50;;;13.30;95.90;;;;;;5058254;28;20466;-67
2023/03/23 06:11:33;;;;;;;2.53;1.80;;;13.30;95.90;;;;;;5055458;28;20516;-70
2023/03/23 06:14:00;;;;;;;1.80;1.57;;;13.40;95.80;;;;;;5058300;28;20487;-70
2023/03/23 06:16:29;;;;;;;1.50;1.40;;;13.40;95.80;;;;;;5067501;28;20470;-71
2023/03/23 06:18:56;;;;;;;1.70;1.53;;;13.40;95.90;;;;;;5070256;28;20487;-70
2023/03/23 06:21:23;;;;;;;1.90;1.70;;;13.50;95.80;;;;;;5069539;28;20466;-69
2023/03/23 06:23:50;;;;;;;1.93;1.60;;;13.40;95.60;;;;;;5063702;28;20564;-70
2023/03/23 06:26:19;;;;;;;1.90;1.70;;;13.50;95.50;;;;;;5052186;28;20455;-71
2023/03/23 06:28:47;;;;;;;1.63;1.53;;;13.50;95.60;;;;;;5050197;28;20455;-70
2023/03/23 06:31:14;;;;;;;1.53;1.43;;;13.60;95.50;;;;;;5049841;28;20550;-71
2023/03/23 06:33:42;;;;;;;1.93;1.67;;;13.60;95.70;;;;;;5049972;28;20541;-70
2023/03/23 06:36:11;;;;;;;1.80;1.50;;;13.50;95.60;;;;;;5050172;28;20475;-69
2023/03/23 06:38:38;;;;;;;1.83;1.30;;;13.60;95.50;;;;;;5054860;28;20508;-68
2023/03/23 06:41:05;;;;;;;2.40;1.83;;;13.50;95.70;;;;;;5069930;28;20467;-69
2023/03/23 06:43:33;;;;;;;1.63;1.33;;;13.50;95.70;;;;;;5069822;28;21244;-68
2023/03/23 06:46:01;;;;;;;1.80;1.47;;;13.50;95.60;;;;;;5069600;28;20868;-68
2023/03/23 06:48:28;;;;;;;1.67;1.57;;;13.50;95.80;;;;;;5069567;28;20910;-68
2023/03/23 06:50:56;;;;;;;1.53;1.43;;;13.50;95.80;;;;;;5064105;28;20851;-71
2023/03/23 06:53:22;;;;;;;1.90;1.57;;;13.60;95.70;;;;;;5049677;28;20460;-68
2023/03/23 06:55:49;;;;;;;1.43;1.33;;;13.60;95.70;;;;;;5049450;28;20830;-70
2023/03/23 06:58:16;;;;;;;3.10;1.30;;;13.70;95.70;;;;;;5050022;28;20463;-68
2023/03/23 07:00:42;;;;;;;1.63;1.53;;;13.70;95.80;;;;;;5070190;28;20462;-68
2023/03/23 07:03:09;;;;;;;1.57;1.30;;;13.80;95.70;;;;;;5069941;28;20878;-68
2023/03/23 07:05:36;;;;;;;1.70;1.57;;;13.80;95.50;;;;;;5069062;28;20475;-68
2023/03/23 07:08:05;;;;;;;2.03;1.40;;;13.90;95.60;;;;;;5052536;28;20497;-68
2023/03/23 07:10:33;;;;;;;1.60;1.50;;;14.00;95.50;;;;;;5050061;28;20463;-68
2023/03/23 07:13:00;;;;;;;2.53;1.83;;;14.00;95.40;;;;;;5056777;28;20907;-67
2023/03/23 07:15:27;;;;;;;1.90;1.63;;;14.00;95.40;;;;;;5069498;28;20840;-68
2023/03/23 07:17:55;;;;;;;2.30;1.33;;;14.00;95.60;;;;;;5069116;28;20512;-68
2023/03/23 07:20:21;;;;;;;1.93;1.43;;;14.00;95.70;;;;;;5069532;28;20525;-68
2023/03/23 07:22:49;;;;;;;2.43;1.60;;;14.00;95.70;;;;;;5069209;28;20539;-69
2023/03/23 07:25:18;;;;;;;2.30;1.80;;;14.00;95.60;;;;;;5052545;28;20570;-68
2023/03/23 07:27:45;;;;;;;1.60;1.50;;;14.00;95.80;;;;;;5049453;28;20463;-68
2023/03/23 07:30:14;;;;;;;2.47;1.70;;;14.00;95.80;;;;;;5050299;28;20462;-69
2023/03/23 07:32:41;;;;;;;2.20;1.70;;;14.00;95.60;;;;;;5054432;28;20468;-68
2023/03/23 07:35:08;;;;;;;2.50;1.77;;;14.00;95.80;;;;;;5067801;28;20493;-67
2023/03/23 07:37:35;;;;;;;1.27;1.17;;;14.00;95.90;;;;;;5061130;28;20909;-68
2023/03/23 07:40:08;;;;;;;2.37;1.57;;;14.00;95.90;;;;;;5052616;28;20463;-68
2023/03/23 07:42:36;;;;;;;2.60;1.63;;;14.00;95.80;;;;;;5069083;28;20458;-68
2023/03/23 07:45:03;;;;;;;1.80;1.67;;;14.00;96.10;;;;;;5051859;28;20502;-68
2023/03/23 07:47:30;;;;;;;1.53;1.43;;;14.00;95.80;;;;;;5052613;28;20490;-68
2023/03/23 07:49:57;;;;;;;2.77;1.70;;;14.10;95.90;;;;;;5051853;28;20836;-68
2023/03/23 07:52:23;;;;;;;1.47;1.37;;;14.10;96.10;;;;;;5061434;28;20465;-69
2023/03/23 07:54:50;;;;;;;2.23;1.43;;;14.10;96.00;;;;;;5067403;28;20479;-69
2023/03/23 07:57:17;;;;;;;2.93;1.67;;;14.30;95.90;;;;;;5052374;28;20517;-69
2023/03/23 07:59:46;;;;;;;3.53;1.47;;;14.30;96.10;;;;;;5056060;28;20477;-69
2023/03/23 08:02:13;;;;;;;2.60;1.90;;;14.40;96.20;;;;;;5072146;28;20466;-68
2023/03/23 08:04:40;;;;;;;1.67;1.57;;;14.50;96.50;;;;;;5056509;28;20543;-68
2023/03/23 08:07:06;;;;;;;2.33;1.63;;;14.50;96.20;;;;;;5071883;28;20462;-67
2023/03/23 08:09:33;;;;;;;1.80;1.70;;;14.50;96.60;;;;;;5064103;28;20466;-69
2023/03/23 08:12:00;;;;;;;2.23;1.87;;;14.50;96.50;;;;;;5064492;28;20869;-69
2023/03/23 08:14:28;;;;;;;1.97;1.67;;;14.70;96.40;;;;;;5055041;28;20574;-69
2023/03/23 08:16:57;;;;;;;1.57;1.40;;;14.80;96.20;;;;;;5067040;28;20475;-69
2023/03/23 08:19:24;;;;;;;1.40;1.30;;;15.00;96.20;;;;;;5062393;28;20469;-69
2023/03/23 08:21:51;;;;;;;2.13;1.60;;;15.00;96.60;;;;;;5349648;22;21331;-68
2023/03/23 08:24:18;;;;;;;2.13;1.93;;;15.10;96.30;;;;;;5076289;28;20486;-69
2023/03/23 08:26:45;;;;;;;2.50;1.97;;;15.20;96.50;;;;;;5067998;28;20503;-68
2023/03/23 08:29:12;;;;;;;1.73;1.40;;;15.30;96.40;;;;;;5084683;28;20450;-68
2023/03/23 08:31:39;;;;;;;2.00;1.80;;;15.50;96.40;;;;;;5078853;28;20471;-69
2023/03/23 08:34:08;;;;;;;1.73;1.63;;;15.60;96.30;;;;;;5064415;28;20489;-69
2023/03/23 08:36:39;;;;;;;3.27;1.90;;;15.70;96.70;;;;;;5060933;28;20491;-68
2023/03/23 08:39:07;;;;;;;3.30;1.83;;;15.70;96.40;;;;;;5069812;28;20466;-69
2023/03/23 08:41:34;;;;;;;1.80;1.57;;;15.60;96.70;;;;;;5070745;28;20494;-68
2023/03/23 08:44:03;;;;;;;2.07;1.70;;;15.40;97.00;;;;;;5069008;28;20486;-69
2023/03/23 08:46:30;;;;;;;2.20;1.50;;;15.30;97.00;;;;;;5087307;28;20514;-68
2023/03/23 08:48:57;;;;;;;2.00;1.67;;;15.30;97.30;;;;;;5065584;28;21352;-68
2023/03/23 08:51:26;;;;;;;1.83;1.57;;;15.30;97.40;;;;;;5075982;28;20518;-69
2023/03/23 08:54:02;;;;;;;1.50;1.40;;;15.30;97.30;;;;;;5077025;28;20482;-68
2023/03/23 08:56:30;;;;;;;3.90;1.90;;;15.20;97.50;;;;;;5068738;28;20939;-69
2023/03/23 08:58:57;;;;;;;4.03;1.70;;;15.20;97.60;;;;;;5056765;28;20467;-69
2023/03/23 09:01:24;;;;;;;2.20;2.00;;;15.20;97.50;;;;;;5068004;28;20462;-68
2023/03/23 09:03:51;;;;;;;3.63;1.90;;;15.20;97.70;;;;;;5073692;28;20563;-69
2023/03/23 09:06:18;;;;;;;2.10;1.83;;;15.20;97.80;;;;;;5066044;28;20464;-69
2023/03/23 09:11:25;;;;;;;1.50;1.40;;;15.30;97.90;;;;;;5086778;27;20555;-72
2023/03/23 09:13:52;;;;;;;1.77;1.60;;;15.40;98.10;;;;;;5083267;28;20963;-72
2023/03/23 09:16:19;;;;;;;2.43;1.80;;;15.50;97.70;;;;;;5065203;28;20462;-72
2023/03/23 09:18:46;;;;;;;1.80;1.70;;;15.70;97.70;;;;;;5065430;28;20466;-73
2023/03/23 09:21:13;;;;;;;1.80;1.43;;;15.90;97.40;;;;;;5063783;28;20516;-72
2023/03/23 09:23:43;;;;;;;1.50;1.40;;;16.20;97.00;;;;;;5064856;28;20463;-74
2023/03/23 09:26:10;;;;;;;1.20;1.10;;;16.40;97.00;;;;;;5066137;28;20469;-74
2023/03/23 09:28:38;;;;;;;1.53;1.30;;;16.60;96.60;;;;;;5066515;28;20462;-73
2023/03/23 09:31:06;;;;;;;1.60;1.23;;;16.60;96.80;;;;;;5067065;28;20475;-73
2023/03/23 09:33:33;;;;;;;2.60;1.63;;;16.50;97.00;;;;;;5066770;28;20463;-74
2023/03/23 09:36:00;;;;;;;1.50;1.40;;;16.40;96.90;;;;;;5067010;28;20462;-73
2023/03/23 09:38:27;;;;;;;1.77;1.57;;;16.40;96.80;;;;;;5066760;28;20700;-73
2023/03/23 09:41:01;;;;;;;2.00;1.60;;;16.30;96.80;;;;;;5067203;28;20458;-73
2023/03/23 09:43:42;;;;;;;1.57;1.40;;;16.00;96.70;;;;;;5066497;28;20478;-73
2023/03/23 09:46:24;;;;;;;1.50;1.40;;;15.80;97.20;;;;;;5067435;28;20467;-73
2023/03/23 09:48:53;;;;;;;1.50;1.40;;;15.60;97.40;;;;;;5066981;28;20459;-72
2023/03/23 09:51:32;;;;;;;1.20;1.10;;;15.40;97.60;;;;;;5066847;28;20482;-72
2023/03/23 09:54:05;;;;;;;2.87;1.40;;;15.20;97.70;;;;;;5066622;28;20478;-72
2023/03/23 09:56:34;;;;;;;1.63;1.53;;;15.20;97.80;;;;;;5065929;28;20458;-72
2023/03/23 09:59:09;;;;;;;1.50;1.40;;;15.20;97.80;;;;;;5066798;28;20462;-72
2023/03/23 10:01:40;;;;;;;3.67;1.80;;;15.20;98.10;;;;;;5066140;28;20465;-73
2023/03/23 10:04:13;;;;;;;1.63;1.40;;;15.30;98.00;;;;;;5066447;28;21009;-74
2023/03/23 10:06:39;;;;;;;1.53;1.40;;;15.40;97.90;;;;;;5065645;28;20455;-73
2023/03/23 10:09:07;;;;;;;2.93;1.50;;;15.60;98.00;;;;;;5066237;28;20470;-73
2023/03/23 10:11:46;;;;;;;2.63;1.90;;;15.80;97.60;;;;;;5065887;28;20478;-74
2023/03/23 10:14:26;;;;;;;2.60;1.30;;;16.20;97.50;;;;;;5066221;28;20497;-74
2023/03/23 10:17:03;;;;;;;2.10;1.60;;;16.80;97.20;;;;;;5066102;28;20467;-73
2023/03/23 10:19:35;;;;;;;2.37;1.57;;;17.40;96.40;;;;;;5065746;28;20968;-73
2023/03/23 10:22:06;;;;;;;1.83;1.70;;;17.50;95.90;;;;;;5056801;28;20463;-73
2023/03/23 10:24:36;;;;;;;2.00;1.20;;;17.50;96.30;;;;;;5052348;28;20510;-74
2023/03/23 10:27:11;;;;;;;2.10;1.50;;;17.20;96.10;;;;;;5052698;28;20592;-72
2023/03/23 10:29:43;;;;;;;1.70;1.50;;;16.80;96.60;;;;;;5052708;28;20473;-74
2023/03/23 10:32:14;;;;;;;2.93;1.73;;;16.70;97.40;;;;;;5052803;28;20955;-71
2023/03/23 10:34:46;;;;;;;1.90;1.70;;;16.80;97.30;;;;;;5052140;28;20494;-74
2023/03/23 10:37:17;;;;;;;3.00;1.63;;;16.90;96.90;;;;;;5052487;28;20547;-74
2023/03/23 10:39:49;;;;;;;2.10;1.47;;;16.90;96.70;;;;;;5052398;28;20452;-73
2023/03/23 10:42:24;;;;;;;1.60;1.43;;;16.90;97.00;;;;;;5052507;28;20463;-73
2023/03/23 10:44:52;;;;;;;2.40;1.37;;;16.90;97.10;;;;;;5052102;28;20478;-73
2023/03/23 10:47:19;;;;;;;1.43;1.30;;;17.00;97.30;;;;;;5052193;28;20463;-73
2023/03/23 10:49:50;;;;;;;1.80;1.70;;;17.30;96.90;;;;;;5052007;28;20550;-74
2023/03/23 10:52:28;;;;;;;2.10;1.73;;;17.80;97.10;;;;;;5052476;28;20471;-73
2023/03/23 10:54:58;;;;;;;2.30;1.57;;;18.40;96.40;;;;;;5052387;28;20486;-74
2023/03/23 10:57:26;;;;;;;1.70;1.60;;;19.60;95.00;;;;;;5052317;28;20467;-74
2023/03/23 10:59:59;;;;;;;2.03;1.83;;;19.70;94.60;;;;;;5052368;28;20539;-74
2023/03/23 11:02:27;;;;;;;1.67;1.57;;;19.70;94.30;;;;;;5051994;28;20463;-72
2023/03/23 11:05:04;;;;;;;3.20;1.47;;;19.40;94.80;;;;;;5052179;28;20906;-74
2023/03/23 11:07:35;;;;;;;2.67;1.70;;;19.20;94.50;;;;;;5051847;28;20799;-74
2023/03/23 11:10:16;;;;;;;1.77;1.57;;;18.70;95.50;;;;;;5051984;28;21010;-74
2023/03/23 11:12:47;;;;;;;2.10;1.70;;;18.50;95.60;;;;;;5051744;28;20467;-73
2023/03/23 11:15:25;;;;;;;2.07;1.83;;;18.40;95.50;;;;;;5051482;28;21064;-73
2023/03/23 11:18:00;;;;;;;1.60;1.50;;;18.10;95.70;;;;;;5051511;28;20459;-73
2023/03/23 11:20:29;;;;;;;1.90;1.63;;;17.80;95.90;;;;;;5051903;28;20458;-73
2023/03/23 11:22:56;;;;;;;2.63;1.47;;;17.50;95.90;;;;;;5051944;28;20467;-72
2023/03/23 11:25:23;;;;;;;2.30;2.10;;;17.10;96.80;;;;;;5052105;28;20487;-73
2023/03/23 11:27:52;;;;;;;3.80;2.10;;;16.70;97.20;;;;;;5051455;28;20459;-72
2023/03/23 11:30:27;;;;;;;1.60;1.47;;;16.50;97.50;;;;;;5051550;28;20479;-72
2023/03/23 11:32:55;;;;;;;3.73;1.63;;;16.40;97.70;;;;;;5050469;28;20463;-72
2023/03/23 11:35:24;;;;;;;2.80;1.67;;;16.20;98.10;;;;;;5051359;28;20487;-73
2023/03/23 11:37:53;;;;;;;3.20;1.73;;;16.30;98.50;;;;;;5051148;28;20463;-72
2023/03/23 11:40:22;;;;;;;2.20;1.80;;;16.40;98.50;;;;;;5051376;28;20448;-72
2023/03/23 11:42:57;;;;;;;1.90;1.80;;;16.80;98.20;;;;;;5051314;28;20935;-72
2023/03/23 11:45:32;;;;;;;1.80;1.60;;;17.00;97.70;;;;;;5051042;28;20478;-72
2023/03/23 11:48:11;;;;;;;1.77;1.63;;;17.10;97.40;;;;;;5051110;28;20459;-72
2023/03/23 11:50:46;;;;;;;3.27;1.57;;;17.40;97.50;;;;;;5050932;28;20505;-72
2023/03/23 11:53:22;;;;;;;1.53;1.30;;;17.60;96.00;;;;;;5051260;28;20509;-72
2023/03/23 11:56:01;;;;;;;2.53;1.67;;;17.60;95.90;;;;;;5050763;28;20525;-72
2023/03/23 11:58:32;;;;;;;1.47;1.37;;;17.60;95.60;;;;;;5050822;28;20459;-72
2023/03/23 12:01:06;;;;;;;2.10;1.90;;;17.50;96.10;;;;;;5051216;28;20463;-72
2023/03/23 12:03:54;;;;;;;2.30;1.30;;;17.40;96.10;;;;;;5050422;28;20844;-72
2023/03/23 12:06:31;;;;;;;1.53;1.43;;;17.30;95.90;;;;;;5050619;28;20463;-71
2023/03/23 12:09:10;;;;;;;2.07;1.43;;;17.30;96.10;;;;;;5051330;28;20466;-73
2023/03/23 12:11:41;;;;;;;1.40;1.30;;;17.50;95.80;;;;;;5050886;28;20914;-74
2023/03/23 12:14:17;;;;;;;1.83;1.50;;;17.50;95.60;;;;;;5050871;28;20483;-73
2023/03/23 12:17:05;;;;;;;1.90;1.73;;;17.40;95.60;;;;;;5050167;28;20463;-73
2023/03/23 12:19:41;;;;;;;1.40;1.30;;;17.30;95.80;;;;;;5050502;28;20466;-72
2023/03/23 12:22:20;;;;;;;1.23;1.10;;;17.10;95.50;;;;;;5049172;28;20494;-73
2023/03/23 12:25:00;;;;;;;1.80;1.50;;;17.10;95.40;;;;;;5047316;28;20479;-74
2023/03/23 12:27:43;;;;;;;2.47;1.47;;;17.00;95.60;;;;;;5047198;28;20463;-73
2023/03/23 12:30:26;;;;;;;2.00;1.57;;;17.00;95.70;;;;;;5043517;28;20456;-73
2023/03/23 12:33:05;;;;;;;2.27;1.57;;;17.10;95.50;;;;;;5049452;28;20954;-74
2023/03/23 12:35:43;;;;;;;2.50;1.57;;;17.10;96.10;;;;;;5055069;28;20489;-73
2023/03/23 12:38:24;;;;;;;2.17;1.50;;;17.00;95.80;;;;;;5049743;28;20510;-73
2023/03/23 12:41:16;;;;;;;2.03;1.70;;;17.00;96.00;;;;;;5049796;28;20459;-74
2023/03/23 12:43:54;;;;;;;1.53;1.43;;;17.10;95.70;;;;;;5049291;28;20495;-73
2023/03/23 12:46:44;;;;;;;2.03;1.57;;;17.50;95.40;;;;;;5049441;28;20463;-74
2023/03/23 12:49:18;;;;;;;1.40;1.30;;;18.00;95.40;;;;;;5049729;28;20483;-73
2023/03/23 12:51:52;;;;;;;1.70;1.50;;;18.40;94.20;;;;;;5049495;28;20479;-74
2023/03/23 12:54:25;;;;;;;3.10;2.03;;;18.50;94.50;;;;;;5049486;28;20485;-73
2023/03/23 12:56:57;;;;;;;1.90;1.60;;;18.30;94.30;;;;;;5049117;28;20529;-73
2023/03/23 12:59:29;;;;;;;2.23;1.60;;;18.20;94.40;;;;;;5049576;28;20902;-73
2023/03/23 13:02:03;;;;;;;2.37;2.00;;;18.20;94.90;;;;;;5050379;28;20455;-73
2023/03/23 13:04:38;;;;;;;1.73;1.63;;;18.30;94.70;;;;;;5049521;28;20487;-73
2023/03/23 13:07:10;;;;;;;1.97;1.87;;;18.30;94.90;;;;;;5049628;28;20818;-72
2023/03/23 13:09:49;;;;;;;3.33;2.00;;;17.90;94.70;;;;;;5049130;28;20467;-74